sensor_id;sensor_type;location;lat;lon;timestamp;temperature;humidity
15969;DHT22;8085;53.472;9.794;2022-07-23T00:27:10;17.10;1.00
15969;DHT22;8085;53.472;9.794;2022-07-23T00:40:23;17.00;1.00
15969;DHT22;8085;53.472;9.794;2022-07-23T00:40:59;17.00;1.00
15969;DHT22;8085;53.472;9.794;2022-07-23T00:47:26;16.90;1.00
15969;DHT22;8085;53.472;9.794;2022-07-23T00:50:10;16.90;1.00
15969;DHT22;8085;53.472;9.794;2022-07-23T00:55:47;17.00;1.00
15969;DHT22;8085;53.472;9.794;2022-07-23T00:58:16;17.00;1.00
15969;DHT22;8085;53.472;9.794;2022-07-23T01:00:43;17.00;1.00
15969;DHT22;8085;53.472;9.794;2022-07-23T01:03:18;16.90;1.00
15969;DHT22;8085;53.472;9.794;2022-07-23T01:06:00;16.80;1.00
15969;DHT22;8085;53.472;9.794;2022-07-23T01:08:27;16.70;1.00
15969;DHT22;8085;53.472;9.794;2022-07-23T01:10:54;16.70;1.00
15969;DHT22;8085;53.472;9.794;2022-07-23T01:13:22;16.70;1.00
15969;DHT22;8085;53.472;9.794;2022-07-23T01:15:49;16.60;1.00
15969;DHT22;8085;53.472;9.794;2022-07-23T01:18:17;16.60;1.00
15969;DHT22;8085;53.472;9.794;2022-07-23T01:20:45;16.70;1.00
15969;DHT22;8085;53.472;9.794;2022-07-23T01:23:13;16.70;1.00
15969;DHT22;8085;53.472;9.794;2022-07-23T01:26:10;16.70;1.00
15969;DHT22;8085;53.472;9.794;2022-07-23T01:28:53;16.60;1.00
15969;DHT22;8085;53.472;9.794;2022-07-23T01:31:25;16.60;1.00
15969;DHT22;8085;53.472;9.794;2022-07-23T01:33:52;16.70;1.00
15969;DHT22;8085;53.472;9.794;2022-07-23T01:36:19;16.70;1.00
15969;DHT22;8085;53.472;9.794;2022-07-23T01:38:49;16.70;1.00
15969;DHT22;8085;53.472;9.794;2022-07-23T01:41:16;16.70;1.00
15969;DHT22;8085;53.472;9.794;2022-07-23T01:43:46;16.60;1.00
15969;DHT22;8085;53.472;9.794;2022-07-23T01:46:22;16.70;1.00
15969;DHT22;8085;53.472;9.794;2022-07-23T01:48:49;16.70;1.00
15969;DHT22;8085;53.472;9.794;2022-07-23T01:51:19;16.60;1.00
15969;DHT22;8085;53.472;9.794;2022-07-23T01:53:50;16.60;1.00
15969;DHT22;8085;53.472;9.794;2022-07-23T01:56:26;16.50;1.00
15969;DHT22;8085;53.472;9.794;2022-07-23T01:58:58;16.50;1.00
15969;DHT22;8085;53.472;9.794;2022-07-23T02:01:34;16.60;1.00
15969;DHT22;8085;53.472;9.794;2022-07-23T02:04:03;16.70;1.00
15969;DHT22;8085;53.472;9.794;2022-07-23T02:06:46;16.70;1.00
15969;DHT22;8085;53.472;9.794;2022-07-23T02:09:15;16.50;1.00
15969;DHT22;8085;53.472;9.794;2022-07-23T02:11:45;16.40;1.00
15969;DHT22;8085;53.472;9.794;2022-07-23T02:14:19;16.50;1.00
15969;DHT22;8085;53.472;9.794;2022-07-23T02:16:51;16.60;1.00
15969;DHT22;8085;53.472;9.794;2022-07-23T02:19:18;16.50;1.00
15969;DHT22;8085;53.472;9.794;2022-07-23T02:22:09;16.60;1.00
15969;DHT22;8085;53.472;9.794;2022-07-23T02:24:41;16.60;1.00
15969;DHT22;8085;53.472;9.794;2022-07-23T02:27:12;16.50;1.00
15969;DHT22;8085;53.472;9.794;2022-07-23T02:29:49;16.50;1.00
15969;DHT22;8085;53.472;9.794;2022-07-23T02:32:19;16.50;1.00
15969;DHT22;8085;53.472;9.794;2022-07-23T02:34:47;16.50;1.00
15969;DHT22;8085;53.472;9.794;2022-07-23T02:37:24;16.50;1.00
15969;DHT22;8085;53.472;9.794;2022-07-23T02:39:55;16.30;1.00
15969;DHT22;8085;53.472;9.794;2022-07-23T02:42:23;16.10;2.90
15969;DHT22;8085;53.472;9.794;2022-07-23T02:44:51;16.20;1.00
15969;DHT22;8085;53.472;9.794;2022-07-23T02:47:21;16.20;1.00
15969;DHT22;8085;53.472;9.794;2022-07-23T02:49:49;16.30;1.00
15969;DHT22;8085;53.472;9.794;2022-07-23T02:52:17;16.30;1.00
15969;DHT22;8085;53.472;9.794;2022-07-23T02:54:44;16.30;1.00
15969;DHT22;8085;53.472;9.794;2022-07-23T02:57:13;16.30;1.00
15969;DHT22;8085;53.472;9.794;2022-07-23T02:59:40;16.20;1.00
15969;DHT22;8085;53.472;9.794;2022-07-23T03:02:08;16.20;1.00
15969;DHT22;8085;53.472;9.794;2022-07-23T03:04:35;16.20;1.00
15969;DHT22;8085;53.472;9.794;2022-07-23T03:07:02;16.20;1.00
15969;DHT22;8085;53.472;9.794;2022-07-23T03:09:30;16.20;1.00
15969;DHT22;8085;53.472;9.794;2022-07-23T03:11:57;16.20;1.00
15969;DHT22;8085;53.472;9.794;2022-07-23T03:14:27;16.20;1.00
15969;DHT22;8085;53.472;9.794;2022-07-23T03:16:57;16.20;1.00
15969;DHT22;8085;53.472;9.794;2022-07-23T03:19:26;16.10;1.00
15969;DHT22;8085;53.472;9.794;2022-07-23T03:21:56;16.10;1.00
15969;DHT22;8085;53.472;9.794;2022-07-23T03:24:32;16.00;1.90
15969;DHT22;8085;53.472;9.794;2022-07-23T03:27:19;16.00;4.10
15969;DHT22;8085;53.472;9.794;2022-07-23T03:29:55;15.90;7.80
15969;DHT22;8085;53.472;9.794;2022-07-23T03:32:23;16.00;3.80
15969;DHT22;8085;53.472;9.794;2022-07-23T03:35:00;15.90;3.80
15969;DHT22;8085;53.472;9.794;2022-07-23T03:40:51;15.90;9.50
15969;DHT22;8085;53.472;9.794;2022-07-23T03:47:24;15.80;19.80
15969;DHT22;8085;53.472;9.794;2022-07-23T03:50:20;15.90;15.10
15969;DHT22;8085;53.472;9.794;2022-07-23T03:53:39;15.80;18.10
15969;DHT22;8085;53.472;9.794;2022-07-23T03:59:49;15.70;27.20
15969;DHT22;8085;53.472;9.794;2022-07-23T04:06:19;15.60;49.60
15969;DHT22;8085;53.472;9.794;2022-07-23T04:08:46;15.60;43.90
15969;DHT22;8085;53.472;9.794;2022-07-23T04:11:31;15.50;42.90
15969;DHT22;8085;53.472;9.794;2022-07-23T04:14:13;15.50;51.30
15969;DHT22;8085;53.472;9.794;2022-07-23T04:16:48;15.60;57.30
15969;DHT22;8085;53.472;9.794;2022-07-23T04:19:18;15.60;48.80
15969;DHT22;8085;53.472;9.794;2022-07-23T04:21:54;15.60;45.00
15969;DHT22;8085;53.472;9.794;2022-07-23T04:24:30;15.70;47.80
15969;DHT22;8085;53.472;9.794;2022-07-23T04:26:57;15.80;42.10
15969;DHT22;8085;53.472;9.794;2022-07-23T04:29:27;15.90;35.10
15969;DHT22;8085;53.472;9.794;2022-07-23T04:31:54;15.90;30.80
15969;DHT22;8085;53.472;9.794;2022-07-23T04:34:54;15.90;24.90
15969;DHT22;8085;53.472;9.794;2022-07-23T04:37:23;15.90;24.70
15969;DHT22;8085;53.472;9.794;2022-07-23T04:40:02;15.80;25.20
15969;DHT22;8085;53.472;9.794;2022-07-23T04:42:46;15.80;28.80
15969;DHT22;8085;53.472;9.794;2022-07-23T04:45:38;15.70;36.80
15969;DHT22;8085;53.472;9.794;2022-07-23T04:51:12;15.80;32.10
15969;DHT22;8085;53.472;9.794;2022-07-23T04:53:46;15.70;41.60
15969;DHT22;8085;53.472;9.794;2022-07-23T04:56:16;15.70;47.40
15969;DHT22;8085;53.472;9.794;2022-07-23T04:58:43;15.90;30.60
15969;DHT22;8085;53.472;9.794;2022-07-23T05:01:10;15.80;29.70
15969;DHT22;8085;53.472;9.794;2022-07-23T05:03:37;15.90;37.80
15969;DHT22;8085;53.472;9.794;2022-07-23T05:06:06;15.90;28.50
15969;DHT22;8085;53.472;9.794;2022-07-23T05:08:36;16.00;26.70
15969;DHT22;8085;53.472;9.794;2022-07-23T05:11:03;15.80;37.30
15969;DHT22;8085;53.472;9.794;2022-07-23T05:13:34;15.70;46.50
15969;DHT22;8085;53.472;9.794;2022-07-23T05:16:11;15.80;47.80
15969;DHT22;8085;53.472;9.794;2022-07-23T05:18:54;15.80;41.90
15969;DHT22;8085;53.472;9.794;2022-07-23T05:21:27;15.70;41.20
15969;DHT22;8085;53.472;9.794;2022-07-23T05:24:07;15.70;46.30
15969;DHT22;8085;53.472;9.794;2022-07-23T05:26:42;15.70;41.50
15969;DHT22;8085;53.472;9.794;2022-07-23T05:29:13;15.80;42.00
15969;DHT22;8085;53.472;9.794;2022-07-23T05:31:40;15.80;34.20
15969;DHT22;8085;53.472;9.794;2022-07-23T05:34:07;16.00;30.50
15969;DHT22;8085;53.472;9.794;2022-07-23T05:36:36;16.00;16.80
15969;DHT22;8085;53.472;9.794;2022-07-23T05:39:03;16.00;17.30
15969;DHT22;8085;53.472;9.794;2022-07-23T05:41:30;15.90;30.10
15969;DHT22;8085;53.472;9.794;2022-07-23T05:43:57;15.90;29.40
15969;DHT22;8085;53.472;9.794;2022-07-23T05:46:24;16.00;24.70
15969;DHT22;8085;53.472;9.794;2022-07-23T05:48:51;16.00;24.80
15969;DHT22;8085;53.472;9.794;2022-07-23T05:51:24;15.90;32.80
15969;DHT22;8085;53.472;9.794;2022-07-23T05:53:53;15.90;37.40
15969;DHT22;8085;53.472;9.794;2022-07-23T05:56:20;15.80;39.20
15969;DHT22;8085;53.472;9.794;2022-07-23T05:58:47;15.90;42.20
15969;DHT22;8085;53.472;9.794;2022-07-23T06:01:14;16.00;38.50
15969;DHT22;8085;53.472;9.794;2022-07-23T06:03:41;16.00;31.30
15969;DHT22;8085;53.472;9.794;2022-07-23T06:06:08;16.00;35.40
15969;DHT22;8085;53.472;9.794;2022-07-23T06:08:41;16.00;43.10
15969;DHT22;8085;53.472;9.794;2022-07-23T06:11:15;16.00;42.40
15969;DHT22;8085;53.472;9.794;2022-07-23T06:13:45;16.00;36.40
15969;DHT22;8085;53.472;9.794;2022-07-23T06:16:13;16.10;33.60
15969;DHT22;8085;53.472;9.794;2022-07-23T06:18:41;16.10;31.60
15969;DHT22;8085;53.472;9.794;2022-07-23T06:21:10;16.10;36.00
15969;DHT22;8085;53.472;9.794;2022-07-23T06:23:38;16.20;36.30
15969;DHT22;8085;53.472;9.794;2022-07-23T06:26:06;16.30;29.80
15969;DHT22;8085;53.472;9.794;2022-07-23T06:28:34;16.30;28.30
15969;DHT22;8085;53.472;9.794;2022-07-23T06:31:07;16.30;26.20
15969;DHT22;8085;53.472;9.794;2022-07-23T06:33:40;16.40;19.00
15969;DHT22;8085;53.472;9.794;2022-07-23T06:36:10;16.30;19.80
15969;DHT22;8085;53.472;9.794;2022-07-23T06:38:37;16.40;16.80
15969;DHT22;8085;53.472;9.794;2022-07-23T06:41:15;16.40;13.40
15969;DHT22;8085;53.472;9.794;2022-07-23T06:43:43;16.50;1.00
15969;DHT22;8085;53.472;9.794;2022-07-23T06:46:10;16.50;1.00
15969;DHT22;8085;53.472;9.794;2022-07-23T06:48:37;16.50;1.00
15969;DHT22;8085;53.472;9.794;2022-07-23T06:51:05;16.60;1.00
15969;DHT22;8085;53.472;9.794;2022-07-23T06:53:31;16.60;1.00
15969;DHT22;8085;53.472;9.794;2022-07-23T06:56:00;16.60;1.00
15969;DHT22;8085;53.472;9.794;2022-07-23T06:58:27;16.60;1.00
15969;DHT22;8085;53.472;9.794;2022-07-23T07:00:56;16.60;1.00
15969;DHT22;8085;53.472;9.794;2022-07-23T07:03:23;16.60;1.00
15969;DHT22;8085;53.472;9.794;2022-07-23T07:05:50;16.50;1.00
15969;DHT22;8085;53.472;9.794;2022-07-23T07:08:18;16.50;1.00
15969;DHT22;8085;53.472;9.794;2022-07-23T07:10:45;16.40;1.00
15969;DHT22;8085;53.472;9.794;2022-07-23T07:13:13;16.50;1.00
15969;DHT22;8085;53.472;9.794;2022-07-23T07:15:40;16.50;1.00
15969;DHT22;8085;53.472;9.794;2022-07-23T07:18:08;16.70;1.00
15969;DHT22;8085;53.472;9.794;2022-07-23T07:20:35;16.80;1.00
15969;DHT22;8085;53.472;9.794;2022-07-23T07:23:02;16.80;1.00
15969;DHT22;8085;53.472;9.794;2022-07-23T07:25:29;16.90;1.00
15969;DHT22;8085;53.472;9.794;2022-07-23T07:27:56;16.90;1.00
15969;DHT22;8085;53.472;9.794;2022-07-23T07:30:23;17.00;1.00
15969;DHT22;8085;53.472;9.794;2022-07-23T07:32:50;17.10;1.00
15969;DHT22;8085;53.472;9.794;2022-07-23T07:35:19;17.20;1.00
15969;DHT22;8085;53.472;9.794;2022-07-23T07:37:46;17.20;1.00
15969;DHT22;8085;53.472;9.794;2022-07-23T07:40:13;17.20;1.00
15969;DHT22;8085;53.472;9.794;2022-07-23T07:42:46;17.40;1.00
15969;DHT22;8085;53.472;9.794;2022-07-23T07:45:13;17.60;1.00
15969;DHT22;8085;53.472;9.794;2022-07-23T07:47:40;17.60;1.00
15969;DHT22;8085;53.472;9.794;2022-07-23T07:50:08;17.50;1.00
15969;DHT22;8085;53.472;9.794;2022-07-23T07:52:37;17.70;1.00
15969;DHT22;8085;53.472;9.794;2022-07-23T07:55:04;17.60;1.00
15969;DHT22;8085;53.472;9.794;2022-07-23T07:57:32;17.40;1.00
15969;DHT22;8085;53.472;9.794;2022-07-23T07:59:59;17.40;1.00
15969;DHT22;8085;53.472;9.794;2022-07-23T08:02:26;17.40;1.00
15969;DHT22;8085;53.472;9.794;2022-07-23T08:04:53;17.30;1.00
15969;DHT22;8085;53.472;9.794;2022-07-23T08:07:21;17.30;1.00
15969;DHT22;8085;53.472;9.794;2022-07-23T08:09:50;17.20;1.00
15969;DHT22;8085;53.472;9.794;2022-07-23T08:12:17;17.20;1.00
15969;DHT22;8085;53.472;9.794;2022-07-23T08:14:44;17.30;1.00
15969;DHT22;8085;53.472;9.794;2022-07-23T08:17:14;17.50;1.00
15969;DHT22;8085;53.472;9.794;2022-07-23T08:19:42;17.60;1.00
15969;DHT22;8085;53.472;9.794;2022-07-23T08:22:09;17.20;1.00
15969;DHT22;8085;53.472;9.794;2022-07-23T08:24:36;17.00;1.00
15969;DHT22;8085;53.472;9.794;2022-07-23T08:27:04;16.80;13.50
15969;DHT22;8085;53.472;9.794;2022-07-23T08:29:31;16.60;14.40
15969;DHT22;8085;53.472;9.794;2022-07-23T08:31:58;16.50;29.40
15969;DHT22;8085;53.472;9.794;2022-07-23T08:34:25;16.50;18.60
15969;DHT22;8085;53.472;9.794;2022-07-23T08:36:52;16.60;3.70
15969;DHT22;8085;53.472;9.794;2022-07-23T08:39:19;16.70;1.00
15969;DHT22;8085;53.472;9.794;2022-07-23T08:41:46;16.80;1.00
15969;DHT22;8085;53.472;9.794;2022-07-23T08:44:16;17.00;1.00
15969;DHT22;8085;53.472;9.794;2022-07-23T08:46:44;17.30;1.00
15969;DHT22;8085;53.472;9.794;2022-07-23T08:49:11;17.50;1.00
15969;DHT22;8085;53.472;9.794;2022-07-23T08:51:40;17.70;1.00
15969;DHT22;8085;53.472;9.794;2022-07-23T08:54:07;18.00;1.00
15969;DHT22;8085;53.472;9.794;2022-07-23T08:56:35;18.40;1.00
15969;DHT22;8085;53.472;9.794;2022-07-23T08:59:02;18.50;99.90
15969;DHT22;8085;53.472;9.794;2022-07-23T09:01:31;18.60;99.90
15969;DHT22;8085;53.472;9.794;2022-07-23T09:03:58;18.70;1.00
15969;DHT22;8085;53.472;9.794;2022-07-23T09:06:25;18.60;1.00
15969;DHT22;8085;53.472;9.794;2022-07-23T09:08:55;18.60;1.00
15969;DHT22;8085;53.472;9.794;2022-07-23T09:11:22;18.50;99.90
15969;DHT22;8085;53.472;9.794;2022-07-23T09:13:49;18.50;99.90
15969;DHT22;8085;53.472;9.794;2022-07-23T09:16:23;18.40;99.90
15969;DHT22;8085;53.472;9.794;2022-07-23T09:18:53;18.40;99.90
15969;DHT22;8085;53.472;9.794;2022-07-23T09:21:24;18.60;1.00
15969;DHT22;8085;53.472;9.794;2022-07-23T09:23:54;18.80;99.90
15969;DHT22;8085;53.472;9.794;2022-07-23T09:26:33;18.90;1.00
15969;DHT22;8085;53.472;9.794;2022-07-23T09:29:06;19.20;1.00
15969;DHT22;8085;53.472;9.794;2022-07-23T09:31:50;19.20;1.00
15969;DHT22;8085;53.472;9.794;2022-07-23T09:34:30;19.20;1.00
15969;DHT22;8085;53.472;9.794;2022-07-23T09:37:17;19.30;99.90
15969;DHT22;8085;53.472;9.794;2022-07-23T09:40:06;19.30;1.00
15969;DHT22;8085;53.472;9.794;2022-07-23T09:42:55;19.20;1.00
15969;DHT22;8085;53.472;9.794;2022-07-23T09:45:43;19.00;99.90
15969;DHT22;8085;53.472;9.794;2022-07-23T09:48:11;18.70;1.00
15969;DHT22;8085;53.472;9.794;2022-07-23T09:50:40;18.60;1.00
15969;DHT22;8085;53.472;9.794;2022-07-23T09:53:08;18.50;1.00
15969;DHT22;8085;53.472;9.794;2022-07-23T09:55:36;18.40;1.00
15969;DHT22;8085;53.472;9.794;2022-07-23T09:58:05;18.20;1.00
15969;DHT22;8085;53.472;9.794;2022-07-23T10:00:33;17.90;99.90
15969;DHT22;8085;53.472;9.794;2022-07-23T10:03:01;17.90;99.90
15969;DHT22;8085;53.472;9.794;2022-07-23T10:05:29;18.00;99.90
15969;DHT22;8085;53.472;9.794;2022-07-23T10:07:59;18.00;99.90
15969;DHT22;8085;53.472;9.794;2022-07-23T10:10:28;18.10;1.00
15969;DHT22;8085;53.472;9.794;2022-07-23T10:12:56;18.30;1.00
15969;DHT22;8085;53.472;9.794;2022-07-23T10:15:40;18.50;1.00
15969;DHT22;8085;53.472;9.794;2022-07-23T10:18:10;18.50;99.90
15969;DHT22;8085;53.472;9.794;2022-07-23T10:20:37;18.70;1.00
15969;DHT22;8085;53.472;9.794;2022-07-23T10:23:13;18.90;1.00
15969;DHT22;8085;53.472;9.794;2022-07-23T10:25:48;19.10;1.00
15969;DHT22;8085;53.472;9.794;2022-07-23T10:28:44;19.10;1.00
15969;DHT22;8085;53.472;9.794;2022-07-23T10:31:20;19.40;1.00
15969;DHT22;8085;53.472;9.794;2022-07-23T10:33:59;19.60;99.90
15969;DHT22;8085;53.472;9.794;2022-07-23T10:36:32;19.50;24.30
15969;DHT22;8085;53.472;9.794;2022-07-23T10:39:10;19.50;99.90
15969;DHT22;8085;53.472;9.794;2022-07-23T10:41:43;19.70;99.90
15969;DHT22;8085;53.472;9.794;2022-07-23T10:44:12;19.70;1.00
15969;DHT22;8085;53.472;9.794;2022-07-23T10:46:57;19.80;99.90
15969;DHT22;8085;53.472;9.794;2022-07-23T10:49:40;20.30;1.00
15969;DHT22;8085;53.472;9.794;2022-07-23T10:52:21;20.40;1.00
15969;DHT22;8085;53.472;9.794;2022-07-23T10:54:52;20.40;99.90
15969;DHT22;8085;53.472;9.794;2022-07-23T10:57:21;20.50;1.00
15969;DHT22;8085;53.472;9.794;2022-07-23T11:00:21;20.50;1.00
15969;DHT22;8085;53.472;9.794;2022-07-23T11:02:52;20.50;99.90
15969;DHT22;8085;53.472;9.794;2022-07-23T11:05:21;20.30;99.90
15969;DHT22;8085;53.472;9.794;2022-07-23T11:08:18;20.20;1.00
15969;DHT22;8085;53.472;9.794;2022-07-23T11:10:50;20.30;20.50
15969;DHT22;8085;53.472;9.794;2022-07-23T11:13:32;20.50;1.00
15969;DHT22;8085;53.472;9.794;2022-07-23T11:18:58;20.50;1.00
15969;DHT22;8085;53.472;9.794;2022-07-23T11:21:45;20.50;1.00
15969;DHT22;8085;53.472;9.794;2022-07-23T11:24:16;20.50;1.00
15969;DHT22;8085;53.472;9.794;2022-07-23T11:27:03;20.80;1.00
15969;DHT22;8085;53.472;9.794;2022-07-23T11:29:47;20.70;1.00
15969;DHT22;8085;53.472;9.794;2022-07-23T11:32:37;20.50;1.00
15969;DHT22;8085;53.472;9.794;2022-07-23T11:35:24;20.50;13.90
15969;DHT22;8085;53.472;9.794;2022-07-23T11:38:14;20.70;1.00
15969;DHT22;8085;53.472;9.794;2022-07-23T11:40:44;20.70;99.90
15969;DHT22;8085;53.472;9.794;2022-07-23T11:43:13;20.70;1.00
15969;DHT22;8085;53.472;9.794;2022-07-23T11:45:42;20.40;1.00
15969;DHT22;8085;53.472;9.794;2022-07-23T11:48:16;20.30;99.90
15969;DHT22;8085;53.472;9.794;2022-07-23T11:50:43;20.40;99.90
15969;DHT22;8085;53.472;9.794;2022-07-23T11:53:10;20.50;1.00
15969;DHT22;8085;53.472;9.794;2022-07-23T11:55:37;20.50;1.00
15969;DHT22;8085;53.472;9.794;2022-07-23T11:58:04;20.50;1.00
15969;DHT22;8085;53.472;9.794;2022-07-23T12:00:33;20.60;1.00
15969;DHT22;8085;53.472;9.794;2022-07-23T12:03:03;20.90;1.00
15969;DHT22;8085;53.472;9.794;2022-07-23T12:05:33;20.70;99.90
15969;DHT22;8085;53.472;9.794;2022-07-23T12:08:03;20.60;1.00
15969;DHT22;8085;53.472;9.794;2022-07-23T12:10:34;20.50;1.00
15969;DHT22;8085;53.472;9.794;2022-07-23T12:13:05;20.60;1.00
15969;DHT22;8085;53.472;9.794;2022-07-23T12:15:36;20.60;34.30
15969;DHT22;8085;53.472;9.794;2022-07-23T12:18:05;20.80;1.00
15969;DHT22;8085;53.472;9.794;2022-07-23T12:20:35;20.80;99.90
15969;DHT22;8085;53.472;9.794;2022-07-23T12:23:05;20.80;99.90
15969;DHT22;8085;53.472;9.794;2022-07-23T12:26:03;20.60;99.90
15969;DHT22;8085;53.472;9.794;2022-07-23T12:28:32;20.30;1.00
15969;DHT22;8085;53.472;9.794;2022-07-23T12:31:04;20.10;1.00
15969;DHT22;8085;53.472;9.794;2022-07-23T12:33:33;20.00;99.90
15969;DHT22;8085;53.472;9.794;2022-07-23T12:36:03;20.00;99.90
15969;DHT22;8085;53.472;9.794;2022-07-23T12:38:37;19.90;99.90
15969;DHT22;8085;53.472;9.794;2022-07-23T12:41:04;19.80;99.90
15969;DHT22;8085;53.472;9.794;2022-07-23T12:43:33;19.90;99.90
15969;DHT22;8085;53.472;9.794;2022-07-23T12:46:04;20.00;1.00
15969;DHT22;8085;53.472;9.794;2022-07-23T12:48:33;20.00;99.90
15969;DHT22;8085;53.472;9.794;2022-07-23T12:51:03;20.20;1.00
15969;DHT22;8085;53.472;9.794;2022-07-23T12:53:32;20.40;99.90
15969;DHT22;8085;53.472;9.794;2022-07-23T12:56:03;20.40;41.70
15969;DHT22;8085;53.472;9.794;2022-07-23T12:58:40;20.20;1.00
15969;DHT22;8085;53.472;9.794;2022-07-23T13:01:09;20.10;1.00
15969;DHT22;8085;53.472;9.794;2022-07-23T13:03:38;20.00;1.00
15969;DHT22;8085;53.472;9.794;2022-07-23T13:06:08;20.20;1.00
15969;DHT22;8085;53.472;9.794;2022-07-23T13:08:37;20.20;1.00
15969;DHT22;8085;53.472;9.794;2022-07-23T13:11:05;20.10;1.00
15969;DHT22;8085;53.472;9.794;2022-07-23T13:13:34;20.50;1.00
15969;DHT22;8085;53.472;9.794;2022-07-23T13:16:03;20.60;1.00
15969;DHT22;8085;53.472;9.794;2022-07-23T13:18:31;20.70;99.90
15969;DHT22;8085;53.472;9.794;2022-07-23T13:20:58;20.60;1.00
15969;DHT22;8085;53.472;9.794;2022-07-23T13:23:26;20.40;1.00
15969;DHT22;8085;53.472;9.794;2022-07-23T13:25:53;20.30;91.90
15969;DHT22;8085;53.472;9.794;2022-07-23T13:28:22;20.00;1.00
15969;DHT22;8085;53.472;9.794;2022-07-23T13:30:50;20.00;1.00
15969;DHT22;8085;53.472;9.794;2022-07-23T13:33:18;20.00;1.00
15969;DHT22;8085;53.472;9.794;2022-07-23T13:35:47;20.10;1.00
15969;DHT22;8085;53.472;9.794;2022-07-23T13:38:14;20.40;99.90
15969;DHT22;8085;53.472;9.794;2022-07-23T13:40:44;20.40;1.00
15969;DHT22;8085;53.472;9.794;2022-07-23T13:43:13;20.30;99.90
15969;DHT22;8085;53.472;9.794;2022-07-23T13:45:41;20.70;1.00
15969;DHT22;8085;53.472;9.794;2022-07-23T13:48:10;20.60;99.90
15969;DHT22;8085;53.472;9.794;2022-07-23T13:50:39;20.60;1.00
15969;DHT22;8085;53.472;9.794;2022-07-23T13:53:10;20.70;1.00
15969;DHT22;8085;53.472;9.794;2022-07-23T13:55:38;20.40;1.00
15969;DHT22;8085;53.472;9.794;2022-07-23T13:58:07;20.30;1.00
15969;DHT22;8085;53.472;9.794;2022-07-23T14:00:35;20.40;1.00
15969;DHT22;8085;53.472;9.794;2022-07-23T14:03:03;20.70;99.90
15969;DHT22;8085;53.472;9.794;2022-07-23T14:05:30;20.90;1.00
15969;DHT22;8085;53.472;9.794;2022-07-23T14:07:58;20.90;1.00
15969;DHT22;8085;53.472;9.794;2022-07-23T14:10:26;21.10;1.00
15969;DHT22;8085;53.472;9.794;2022-07-23T14:12:53;21.10;1.00
15969;DHT22;8085;53.472;9.794;2022-07-23T14:15:22;20.90;1.00
15969;DHT22;8085;53.472;9.794;2022-07-23T14:17:49;20.70;67.80
15969;DHT22;8085;53.472;9.794;2022-07-23T14:20:16;20.40;99.90
15969;DHT22;8085;53.472;9.794;2022-07-23T14:22:43;20.40;1.00
15969;DHT22;8085;53.472;9.794;2022-07-23T14:25:10;20.40;99.90
15969;DHT22;8085;53.472;9.794;2022-07-23T14:27:39;20.30;99.90
15969;DHT22;8085;53.472;9.794;2022-07-23T14:30:07;20.50;1.00
15969;DHT22;8085;53.472;9.794;2022-07-23T14:32:35;20.90;1.00
15969;DHT22;8085;53.472;9.794;2022-07-23T14:35:02;20.90;1.00
15969;DHT22;8085;53.472;9.794;2022-07-23T14:37:29;20.90;1.00
15969;DHT22;8085;53.472;9.794;2022-07-23T14:39:56;20.70;1.00
15969;DHT22;8085;53.472;9.794;2022-07-23T14:42:23;20.70;1.00
15969;DHT22;8085;53.472;9.794;2022-07-23T14:44:51;21.00;1.00
15969;DHT22;8085;53.472;9.794;2022-07-23T14:47:18;21.20;1.00
15969;DHT22;8085;53.472;9.794;2022-07-23T14:49:45;21.30;1.00
15969;DHT22;8085;53.472;9.794;2022-07-23T14:52:12;21.30;1.00
15969;DHT22;8085;53.472;9.794;2022-07-23T14:54:39;21.00;99.90
15969;DHT22;8085;53.472;9.794;2022-07-23T14:57:06;20.80;99.90
15969;DHT22;8085;53.472;9.794;2022-07-23T14:59:35;20.60;99.90
15969;DHT22;8085;53.472;9.794;2022-07-23T15:02:03;20.50;1.00
15969;DHT22;8085;53.472;9.794;2022-07-23T15:04:30;20.50;1.00
15969;DHT22;8085;53.472;9.794;2022-07-23T15:06:57;20.60;1.00
15969;DHT22;8085;53.472;9.794;2022-07-23T15:09:23;20.90;1.00
15969;DHT22;8085;53.472;9.794;2022-07-23T15:11:51;21.20;1.00
15969;DHT22;8085;53.472;9.794;2022-07-23T15:14:17;21.40;1.00
15969;DHT22;8085;53.472;9.794;2022-07-23T15:16:44;21.20;1.00
15969;DHT22;8085;53.472;9.794;2022-07-23T15:19:13;21.20;1.00
15969;DHT22;8085;53.472;9.794;2022-07-23T15:21:39;21.10;1.00
15969;DHT22;8085;53.472;9.794;2022-07-23T15:24:07;21.10;1.00
15969;DHT22;8085;53.472;9.794;2022-07-23T15:26:34;20.80;1.00
15969;DHT22;8085;53.472;9.794;2022-07-23T15:29:02;20.70;99.90
15969;DHT22;8085;53.472;9.794;2022-07-23T15:31:31;20.70;99.90
15969;DHT22;8085;53.472;9.794;2022-07-23T15:33:58;20.70;99.90
15969;DHT22;8085;53.472;9.794;2022-07-23T15:36:26;20.70;99.90
15969;DHT22;8085;53.472;9.794;2022-07-23T15:38:53;20.70;1.00
15969;DHT22;8085;53.472;9.794;2022-07-23T15:41:20;20.50;1.00
15969;DHT22;8085;53.472;9.794;2022-07-23T15:43:47;20.50;75.60
15969;DHT22;8085;53.472;9.794;2022-07-23T15:46:14;20.60;30.50
15969;DHT22;8085;53.472;9.794;2022-07-23T15:48:42;20.60;99.90
15969;DHT22;8085;53.472;9.794;2022-07-23T15:51:10;20.60;97.50
15969;DHT22;8085;53.472;9.794;2022-07-23T15:53:38;20.60;99.90
15969;DHT22;8085;53.472;9.794;2022-07-23T15:56:06;20.70;1.00
15969;DHT22;8085;53.472;9.794;2022-07-23T15:58:33;20.60;1.00
15969;DHT22;8085;53.472;9.794;2022-07-23T16:01:00;20.80;1.00
15969;DHT22;8085;53.472;9.794;2022-07-23T16:03:29;20.90;1.00
15969;DHT22;8085;53.472;9.794;2022-07-23T16:05:56;21.10;1.00
15969;DHT22;8085;53.472;9.794;2022-07-23T16:08:23;21.20;1.00
15969;DHT22;8085;53.472;9.794;2022-07-23T16:10:51;21.30;99.90
15969;DHT22;8085;53.472;9.794;2022-07-23T16:13:19;21.30;99.90
15969;DHT22;8085;53.472;9.794;2022-07-23T16:15:46;21.20;99.90
15969;DHT22;8085;53.472;9.794;2022-07-23T16:18:13;21.20;99.90
15969;DHT22;8085;53.472;9.794;2022-07-23T16:20:40;21.20;99.90
15969;DHT22;8085;53.472;9.794;2022-07-23T16:23:07;20.90;1.00
15969;DHT22;8085;53.472;9.794;2022-07-23T16:25:34;20.80;1.00
15969;DHT22;8085;53.472;9.794;2022-07-23T16:28:03;21.00;1.00
15969;DHT22;8085;53.472;9.794;2022-07-23T16:30:31;21.20;1.00
15969;DHT22;8085;53.472;9.794;2022-07-23T16:32:59;20.80;99.90
15969;DHT22;8085;53.472;9.794;2022-07-23T16:35:26;20.50;1.00
15969;DHT22;8085;53.472;9.794;2022-07-23T16:37:53;20.60;35.60
15969;DHT22;8085;53.472;9.794;2022-07-23T16:40:20;20.80;1.00
15969;DHT22;8085;53.472;9.794;2022-07-23T16:42:47;20.90;99.90
15969;DHT22;8085;53.472;9.794;2022-07-23T16:45:15;20.90;28.60
15969;DHT22;8085;53.472;9.794;2022-07-23T16:47:43;20.60;1.00
15969;DHT22;8085;53.472;9.794;2022-07-23T16:50:10;20.40;93.90
15969;DHT22;8085;53.472;9.794;2022-07-23T16:52:37;20.40;83.00
15969;DHT22;8085;53.472;9.794;2022-07-23T16:55:05;20.40;92.10
15969;DHT22;8085;53.472;9.794;2022-07-23T16:57:32;20.60;99.90
15969;DHT22;8085;53.472;9.794;2022-07-23T16:59:59;20.80;24.50
15969;DHT22;8085;53.472;9.794;2022-07-23T17:02:28;21.00;60.60
15969;DHT22;8085;53.472;9.794;2022-07-23T17:04:54;20.70;13.10
15969;DHT22;8085;53.472;9.794;2022-07-23T17:07:21;20.60;1.00
15969;DHT22;8085;53.472;9.794;2022-07-23T17:09:48;20.40;1.00
15969;DHT22;8085;53.472;9.794;2022-07-23T17:12:15;20.40;29.30
15969;DHT22;8085;53.472;9.794;2022-07-23T17:14:42;20.30;99.90
15969;DHT22;8085;53.472;9.794;2022-07-23T17:17:09;20.40;99.90
15969;DHT22;8085;53.472;9.794;2022-07-23T17:19:39;20.70;7.70